Aviation Digital Data Service (ADDS)

Output produced by TAFs form (1112 UTC 01 September 2014)
found at http://aviationweather.gov/adds/tafs/
 
KPUB 010520Z 0106/0206 VRB05KT P6SM SKC 
     FM011900 15010KT P6SM FEW110 
     FM012200 09015KT P6SM SCT110 
     FM020200 04007KT P6SM SKC